Cairns AAF (Fort Rucker) Air Field
KOZR : rendu visible

Aérodrome :











RETROUVEZ-NOUS SUR...

 
LOGIN :

S'inscrire | Disclaimer

   EN    FR    IT 

 









Légende :    VFR   VFR Marginal   IFR   IFR Intensif   IFR Très Intensif
Visi : 
Plafond : 
>= 8 km
>= 3000ft
5 à 8 km
1000 à 3000 ft
1500m à 5 km
500 à 1000 ft
800 à 1500m
200 à 500 ft
< 800m
< 200 ft
Symboles :   Orages  Brouillard  Fortes neiges  Fortes précipitations  Vent > 20 kt






- Altitude de l'aérodrome : 301 ft


KOZR - Cairns AAF (Fort Rucker) Air Field

DERNIER METAR :
  • 281356Z AUTO 00000KT 10SM CLR 06/06 A3007 RMK AO2 SLP186 T00580057

METARs EXPIRÉS :
  • 281256Z AUTO 00000KT 10SM CLR 01/01 A3005 RMK AO2 SLP180 T00080005
  • 281201Z AUTO 00000KT 5SM BR CLR 02/01 A3004 RMK AO2 SLP176
  • 281136Z AUTO 00000KT 5SM BR CLR 02/01 A3003 RMK AO2 SLP173
  • 281126Z AUTO 00000KT 7/8SM R06/2600VP6000FT BR CLR 02/01 A3003 RMK AO2 VIS 7/8V9 SLP173

TAF AMD TAF KOZR
Valide du 28 à 11h jusqu'au 29 à 14h UTC


281140Z 2811/2914 03006KT 8000 BR FEW120 QNH2998INS
BECMG 2816/2817 06006KT 9999 NSW SKC QNH3002INS
BECMG 2902/2903 09006KT 9999 SCT150 QNH3000INS
BECMG 2905/2906 09006KT 9999 SCT060 BKN120 QNH3002INS
BECMG 2913/2914 10009KT 8000 -SHRA SCT025 BKN060 QNH2996INS TX15/2821Z TN01/2811Z



MET'MAP, la Météo Aéronautique d'un coup d'oeil ! - Copyright ORBIFLY Décembre 2007 - Disclaimer

ORBIFLY MET'MAP TEAM :

Programmation & Développement : Alexandra Zaïnal
Sur une idée originale de : Baudouin d'Aumeries
Assistance à la programmation : Marc-Olivier Méhu
Soutien technique & logistique : Manuel Goepfert

Contact : metmap@orbifly.com




SOURCES & CREDITS :

   NOAA       Earth
Advisory